sensor_id;sensor_type;location;lat;lon;timestamp;pressure;altitude;pressure_sealevel;temperature;humidity
78016;BME280;67223;51.102;5.882;2024-01-15T00:00:41;99910.50;;;1.19;100.00
78016;BME280;67223;51.102;5.882;2024-01-15T00:03:06;99900.03;;;1.33;100.00
78016;BME280;67223;51.102;5.882;2024-01-15T00:05:32;99901.81;;;1.33;100.00
78016;BME280;67223;51.102;5.882;2024-01-15T00:07:58;99895.78;;;1.30;100.00
78016;BME280;67223;51.102;5.882;2024-01-15T00:10:23;99892.31;;;1.30;100.00
78016;BME280;67223;51.102;5.882;2024-01-15T00:12:49;99893.06;;;1.32;100.00
78016;BME280;67223;51.102;5.882;2024-01-15T00:15:15;99895.78;;;1.30;100.00
78016;BME280;67223;51.102;5.882;2024-01-15T00:17:40;99890.63;;;1.29;100.00
78016;BME280;67223;51.102;5.882;2024-01-15T00:20:06;99883.75;;;1.26;100.00
78016;BME280;67223;51.102;5.882;2024-01-15T00:22:32;99889.31;;;1.36;100.00
78016;BME280;67223;51.102;5.882;2024-01-15T00:24:57;99886.34;;;1.42;100.00
78016;BME280;67223;51.102;5.882;2024-01-15T00:27:23;99886.09;;;1.61;100.00
78016;BME280;67223;51.102;5.882;2024-01-15T00:29:49;99871.28;;;1.74;100.00
78016;BME280;67223;51.102;5.882;2024-01-15T00:32:16;99874.47;;;1.79;100.00
78016;BME280;67223;51.102;5.882;2024-01-15T00:34:41;99870.50;;;2.14;100.00
78016;BME280;67223;51.102;5.882;2024-01-15T00:37:07;99874.03;;;2.42;100.00
78016;BME280;67223;51.102;5.882;2024-01-15T00:39:32;99876.75;;;1.55;100.00
78016;BME280;67223;51.102;5.882;2024-01-15T00:41:58;99868.34;;;1.35;100.00
78016;BME280;67223;51.102;5.882;2024-01-15T00:44:24;99870.16;;;1.34;100.00
78016;BME280;67223;51.102;5.882;2024-01-15T00:46:49;99874.09;;;1.27;100.00
78016;BME280;67223;51.102;5.882;2024-01-15T00:49:15;99868.91;;;1.25;100.00
78016;BME280;67223;51.102;5.882;2024-01-15T00:51:40;99872.28;;;1.13;100.00
78016;BME280;67223;51.102;5.882;2024-01-15T00:54:06;99868.59;;;1.16;100.00
78016;BME280;67223;51.102;5.882;2024-01-15T00:56:32;99869.13;;;1.07;100.00
78016;BME280;67223;51.102;5.882;2024-01-15T00:58:57;99870.66;;;1.11;100.00
78016;BME280;67223;51.102;5.882;2024-01-15T01:01:23;99859.38;;;1.09;100.00
78016;BME280;67223;51.102;5.882;2024-01-15T01:03:48;99854.72;;;1.14;100.00
78016;BME280;67223;51.102;5.882;2024-01-15T01:06:13;99850.38;;;1.13;100.00
78016;BME280;67223;51.102;5.882;2024-01-15T01:08:39;99845.50;;;1.21;100.00
78016;BME280;67223;51.102;5.882;2024-01-15T01:11:05;99845.50;;;1.21;100.00
78016;BME280;67223;51.102;5.882;2024-01-15T01:13:32;99835.25;;;1.16;100.00
78016;BME280;67223;51.102;5.882;2024-01-15T01:15:57;99833.84;;;1.11;100.00
78016;BME280;67223;51.102;5.882;2024-01-15T01:18:23;99835.53;;;1.12;100.00
78016;BME280;67223;51.102;5.882;2024-01-15T01:20:49;99828.41;;;1.14;100.00
78016;BME280;67223;51.102;5.882;2024-01-15T01:23:14;99824.09;;;1.13;100.00
78016;BME280;67223;51.102;5.882;2024-01-15T01:25:39;99826.44;;;1.17;100.00
78016;BME280;67223;51.102;5.882;2024-01-15T01:28:05;99822.97;;;1.17;100.00
78016;BME280;67223;51.102;5.882;2024-01-15T01:30:31;99805.78;;;1.11;100.00
78016;BME280;67223;51.102;5.882;2024-01-15T01:32:56;99802.06;;;1.44;100.00
78016;BME280;67223;51.102;5.882;2024-01-15T01:35:22;99809.63;;;1.20;100.00
78016;BME280;67223;51.102;5.882;2024-01-15T01:37:48;99805.81;;;1.40;100.00
78016;BME280;67223;51.102;5.882;2024-01-15T01:40:13;99803.84;;;1.29;100.00
78016;BME280;67223;51.102;5.882;2024-01-15T01:42:39;99806.84;;;1.23;100.00
78016;BME280;67223;51.102;5.882;2024-01-15T01:45:05;99815.16;;;1.15;100.00
78016;BME280;67223;51.102;5.882;2024-01-15T01:47:31;99805.03;;;1.09;100.00
78016;BME280;67223;51.102;5.882;2024-01-15T01:49:57;99809.03;;;1.01;100.00
78016;BME280;67223;51.102;5.882;2024-01-15T01:52:23;99803.59;;;1.04;100.00
78016;BME280;67223;51.102;5.882;2024-01-15T01:54:49;99805.47;;;1.02;100.00
78016;BME280;67223;51.102;5.882;2024-01-15T01:57:15;99799.66;;;1.11;100.00
78016;BME280;67223;51.102;5.882;2024-01-15T01:59:40;99790.00;;;1.11;100.00
78016;BME280;67223;51.102;5.882;2024-01-15T02:02:06;99807.91;;;1.05;100.00
78016;BME280;67223;51.102;5.882;2024-01-15T02:04:31;99795.59;;;1.05;100.00
78016;BME280;67223;51.102;5.882;2024-01-15T02:06:59;99787.56;;;1.08;100.00
78016;BME280;67223;51.102;5.882;2024-01-15T02:09:24;99795.72;;;1.04;100.00
78016;BME280;67223;51.102;5.882;2024-01-15T02:11:50;99804.34;;;1.06;100.00
78016;BME280;67223;51.102;5.882;2024-01-15T02:14:16;99803.91;;;1.13;100.00
78016;BME280;67223;51.102;5.882;2024-01-15T02:16:41;99808.59;;;1.08;100.00
78016;BME280;67223;51.102;5.882;2024-01-15T02:19:06;99780.78;;;1.04;100.00
78016;BME280;67223;51.102;5.882;2024-01-15T02:21:32;99788.41;;;1.09;100.00
78016;BME280;67223;51.102;5.882;2024-01-15T02:23:58;99785.78;;;1.09;100.00
78016;BME280;67223;51.102;5.882;2024-01-15T02:26:23;99786.16;;;1.17;100.00
78016;BME280;67223;51.102;5.882;2024-01-15T02:28:50;99779.50;;;1.25;100.00
78016;BME280;67223;51.102;5.882;2024-01-15T02:31:16;99777.63;;;1.27;100.00
78016;BME280;67223;51.102;5.882;2024-01-15T02:33:42;99781.09;;;1.28;100.00
78016;BME280;67223;51.102;5.882;2024-01-15T02:36:08;99777.16;;;1.21;100.00
78016;BME280;67223;51.102;5.882;2024-01-15T02:38:33;99780.31;;;1.12;100.00
78016;BME280;67223;51.102;5.882;2024-01-15T02:40:59;99772.81;;;1.20;100.00
78016;BME280;67223;51.102;5.882;2024-01-15T02:43:24;99782.31;;;1.22;100.00
78016;BME280;67223;51.102;5.882;2024-01-15T02:45:49;99767.19;;;1.12;100.00
78016;BME280;67223;51.102;5.882;2024-01-15T02:48:15;99766.06;;;1.16;100.00
78016;BME280;67223;51.102;5.882;2024-01-15T02:50:40;99766.06;;;1.16;100.00
78016;BME280;67223;51.102;5.882;2024-01-15T02:53:06;99775.06;;;1.12;100.00
78016;BME280;67223;51.102;5.882;2024-01-15T02:55:32;99777.91;;;1.23;100.00
78016;BME280;67223;51.102;5.882;2024-01-15T02:57:57;99774.06;;;1.14;100.00
78016;BME280;67223;51.102;5.882;2024-01-15T03:03:06;99772.94;;;1.18;100.00
78016;BME280;67223;51.102;5.882;2024-01-15T03:05:32;99773.59;;;1.22;100.00
78016;BME280;67223;51.102;5.882;2024-01-15T03:07:57;99765.69;;;1.22;100.00
78016;BME280;67223;51.102;5.882;2024-01-15T03:10:23;99767.41;;;1.23;100.00
78016;BME280;67223;51.102;5.882;2024-01-15T03:12:49;99775.28;;;1.23;100.00
78016;BME280;67223;51.102;5.882;2024-01-15T03:15:14;99773.22;;;1.42;100.00
78016;BME280;67223;51.102;5.882;2024-01-15T03:17:41;99764.97;;;1.34;100.00
78016;BME280;67223;51.102;5.882;2024-01-15T03:20:08;99775.00;;;1.27;100.00
78016;BME280;67223;51.102;5.882;2024-01-15T03:22:33;99765.50;;;1.25;100.00
78016;BME280;67223;51.102;5.882;2024-01-15T03:24:59;99771.59;;;1.25;100.00
78016;BME280;67223;51.102;5.882;2024-01-15T03:27:24;99766.34;;;1.25;100.00
78016;BME280;67223;51.102;5.882;2024-01-15T03:29:51;99769.09;;;1.38;100.00
78016;BME280;67223;51.102;5.882;2024-01-15T03:32:17;99773.78;;;1.33;100.00
78016;BME280;67223;51.102;5.882;2024-01-15T03:34:42;99766.75;;;1.34;100.00
78016;BME280;67223;51.102;5.882;2024-01-15T03:37:08;99769.81;;;1.26;100.00
78016;BME280;67223;51.102;5.882;2024-01-15T03:39:33;99773.59;;;1.36;100.00
78016;BME280;67223;51.102;5.882;2024-01-15T03:41:58;99770.75;;;1.25;100.00
78016;BME280;67223;51.102;5.882;2024-01-15T03:44:24;99767.88;;;1.29;100.00
78016;BME280;67223;51.102;5.882;2024-01-15T03:46:50;99762.97;;;1.23;100.00
78016;BME280;67223;51.102;5.882;2024-01-15T03:49:15;99758.94;;;1.18;100.00
78016;BME280;67223;51.102;5.882;2024-01-15T03:51:41;99757.03;;;1.20;100.00
78016;BME280;67223;51.102;5.882;2024-01-15T03:54:06;99750.28;;;1.16;100.00
78016;BME280;67223;51.102;5.882;2024-01-15T03:56:32;99751.22;;;1.15;100.00
78016;BME280;67223;51.102;5.882;2024-01-15T03:58:57;99739.59;;;1.19;100.00
78016;BME280;67223;51.102;5.882;2024-01-15T04:01:22;99746.34;;;1.09;100.00
78016;BME280;67223;51.102;5.882;2024-01-15T04:03:48;99740.88;;;1.12;100.00
78016;BME280;67223;51.102;5.882;2024-01-15T04:06:13;99735.16;;;1.05;100.00
78016;BME280;67223;51.102;5.882;2024-01-15T04:08:39;99735.06;;;1.07;100.00
78016;BME280;67223;51.102;5.882;2024-01-15T04:11:04;99735.06;;;1.07;100.00
78016;BME280;67223;51.102;5.882;2024-01-15T04:13:33;99741.25;;;1.06;100.00
78016;BME280;67223;51.102;5.882;2024-01-15T04:15:59;99740.31;;;1.07;100.00
78016;BME280;67223;51.102;5.882;2024-01-15T04:18:25;99733.19;;;1.09;100.00
78016;BME280;67223;51.102;5.882;2024-01-15T04:20:51;99732.63;;;1.04;100.00
78016;BME280;67223;51.102;5.882;2024-01-15T04:23:16;99736.28;;;1.15;100.00
78016;BME280;67223;51.102;5.882;2024-01-15T04:25:41;99728.13;;;1.20;100.00
78016;BME280;67223;51.102;5.882;2024-01-15T04:28:09;99730.66;;;1.21;100.00
78016;BME280;67223;51.102;5.882;2024-01-15T04:30:35;99728.03;;;1.21;100.00
78016;BME280;67223;51.102;5.882;2024-01-15T04:33:00;99726.25;;;1.22;100.00
78016;BME280;67223;51.102;5.882;2024-01-15T04:35:26;99726.25;;;1.22;100.00
78016;BME280;67223;51.102;5.882;2024-01-15T04:37:52;99724.75;;;1.18;100.00
78016;BME280;67223;51.102;5.882;2024-01-15T04:40:17;99716.09;;;1.16;100.00
78016;BME280;67223;51.102;5.882;2024-01-15T04:42:43;99714.50;;;1.13;100.00
78016;BME280;67223;51.102;5.882;2024-01-15T04:45:11;99715.94;;;1.19;100.00
78016;BME280;67223;51.102;5.882;2024-01-15T04:47:36;99718.00;;;1.14;100.00
78016;BME280;67223;51.102;5.882;2024-01-15T04:50:03;99719.13;;;1.24;100.00
78016;BME280;67223;51.102;5.882;2024-01-15T04:52:28;99717.06;;;1.29;100.00
78016;BME280;67223;51.102;5.882;2024-01-15T04:54:54;99722.84;;;1.20;100.00
78016;BME280;67223;51.102;5.882;2024-01-15T04:57:20;99725.13;;;1.26;100.00
78016;BME280;67223;51.102;5.882;2024-01-15T04:59:45;99721.75;;;1.24;100.00
78016;BME280;67223;51.102;5.882;2024-01-15T05:02:10;99720.44;;;1.17;100.00
78016;BME280;67223;51.102;5.882;2024-01-15T05:04:36;99716.94;;;1.16;100.00
78016;BME280;67223;51.102;5.882;2024-01-15T05:07:02;99716.94;;;1.16;100.00
78016;BME280;67223;51.102;5.882;2024-01-15T05:09:28;99713.09;;;1.08;100.00
78016;BME280;67223;51.102;5.882;2024-01-15T05:11:54;99709.72;;;1.20;100.00
78016;BME280;67223;51.102;5.882;2024-01-15T05:14:19;99712.75;;;1.14;100.00
78016;BME280;67223;51.102;5.882;2024-01-15T05:16:48;99704.66;;;1.17;100.00
78016;BME280;67223;51.102;5.882;2024-01-15T05:19:14;99702.09;;;1.15;100.00
78016;BME280;67223;51.102;5.882;2024-01-15T05:21:40;99698.53;;;1.16;100.00
78016;BME280;67223;51.102;5.882;2024-01-15T05:24:05;99702.78;;;1.19;100.00
78016;BME280;67223;51.102;5.882;2024-01-15T05:26:31;99708.78;;;1.07;100.00
78016;BME280;67223;51.102;5.882;2024-01-15T05:28:56;99703.06;;;1.14;100.00
78016;BME280;67223;51.102;5.882;2024-01-15T05:31:22;99704.44;;;1.20;100.00
78016;BME280;67223;51.102;5.882;2024-01-15T05:33:48;99700.44;;;1.14;100.00
78016;BME280;67223;51.102;5.882;2024-01-15T05:36:14;99695.25;;;1.13;100.00
78016;BME280;67223;51.102;5.882;2024-01-15T05:38:39;99688.69;;;1.20;100.00
78016;BME280;67223;51.102;5.882;2024-01-15T05:41:05;99681.53;;;1.50;100.00
78016;BME280;67223;51.102;5.882;2024-01-15T05:43:31;99680.97;;;1.31;100.00
78016;BME280;67223;51.102;5.882;2024-01-15T05:45:56;99670.28;;;1.75;100.00
78016;BME280;67223;51.102;5.882;2024-01-15T05:48:22;99675.06;;;1.27;100.00
78016;BME280;67223;51.102;5.882;2024-01-15T05:50:47;99666.69;;;1.49;100.00
78016;BME280;67223;51.102;5.882;2024-01-15T05:53:13;99669.31;;;1.35;100.00
78016;BME280;67223;51.102;5.882;2024-01-15T05:55:38;99676.84;;;1.27;100.00
78016;BME280;67223;51.102;5.882;2024-01-15T05:58:04;99664.34;;;1.30;100.00
78016;BME280;67223;51.102;5.882;2024-01-15T06:00:30;99615.16;;;3.76;100.00
78016;BME280;67223;51.102;5.882;2024-01-15T06:02:56;99562.06;;;6.65;100.00
78016;BME280;67223;51.102;5.882;2024-01-15T06:05:22;99537.56;;;7.72;100.00
78016;BME280;67223;51.102;5.882;2024-01-15T06:07:47;99522.72;;;9.20;100.00
78016;BME280;67223;51.102;5.882;2024-01-15T06:10:13;99525.94;;;10.40;100.00
78016;BME280;67223;51.102;5.882;2024-01-15T06:12:38;99532.50;;;11.39;100.00
78016;BME280;67223;51.102;5.882;2024-01-15T06:15:04;99586.72;;;10.46;100.00
78016;BME280;67223;51.102;5.882;2024-01-15T06:17:29;99617.38;;;11.79;100.00
78016;BME280;67223;51.102;5.882;2024-01-15T06:19:56;99678.28;;;11.07;100.00
78016;BME280;67223;51.102;5.882;2024-01-15T06:22:22;99709.75;;;11.99;100.00
78016;BME280;67223;51.102;5.882;2024-01-15T06:24:47;99765.34;;;12.21;100.00
78016;BME280;67223;51.102;5.882;2024-01-15T06:27:13;99794.44;;;12.16;100.00
78016;BME280;67223;51.102;5.882;2024-01-15T06:29:45;99829.63;;;10.63;100.00
78016;BME280;67223;51.102;5.882;2024-01-15T06:32:14;99858.03;;;8.94;100.00
78016;BME280;67223;51.102;5.882;2024-01-15T06:34:39;99807.34;;;10.72;100.00
78016;BME280;67223;51.102;5.882;2024-01-15T06:37:05;99845.47;;;10.38;100.00
78016;BME280;67223;51.102;5.882;2024-01-15T06:39:31;99836.44;;;11.46;100.00
78016;BME280;67223;51.102;5.882;2024-01-15T06:41:56;99852.66;;;11.71;100.00
78016;BME280;67223;51.102;5.882;2024-01-15T06:44:22;99886.69;;;11.07;100.00
78016;BME280;67223;51.102;5.882;2024-01-15T06:46:47;99879.38;;;11.09;100.00
78016;BME280;67223;51.102;5.882;2024-01-15T06:49:13;99898.28;;;11.16;100.00
78016;BME280;67223;51.102;5.882;2024-01-15T06:51:39;99884.78;;;11.17;100.00
78016;BME280;67223;51.102;5.882;2024-01-15T06:54:05;99893.28;;;10.12;100.00
78016;BME280;67223;51.102;5.882;2024-01-15T06:56:31;99897.78;;;11.30;100.00
78016;BME280;67223;51.102;5.882;2024-01-15T06:58:57;99902.03;;;11.58;100.00
78016;BME280;67223;51.102;5.882;2024-01-15T07:01:23;99925.88;;;11.87;100.00
78016;BME280;67223;51.102;5.882;2024-01-15T07:03:48;99928.72;;;11.68;100.00
78016;BME280;67223;51.102;5.882;2024-01-15T07:06:14;99942.84;;;11.25;100.00
78016;BME280;67223;51.102;5.882;2024-01-15T07:08:40;99940.94;;;10.90;100.00
78016;BME280;67223;51.102;5.882;2024-01-15T07:11:06;99956.38;;;11.59;100.00
78016;BME280;67223;51.102;5.882;2024-01-15T07:13:32;99959.88;;;12.13;100.00
78016;BME280;67223;51.102;5.882;2024-01-15T07:15:58;99959.88;;;12.13;100.00
78016;BME280;67223;51.102;5.882;2024-01-15T07:18:24;99972.75;;;12.35;100.00
78016;BME280;67223;51.102;5.882;2024-01-15T07:20:50;99981.19;;;10.79;100.00
78016;BME280;67223;51.102;5.882;2024-01-15T07:23:16;99961.22;;;12.17;100.00
78016;BME280;67223;51.102;5.882;2024-01-15T07:25:43;99967.28;;;12.19;100.00
78016;BME280;67223;51.102;5.882;2024-01-15T07:28:08;99989.34;;;12.21;100.00
78016;BME280;67223;51.102;5.882;2024-01-15T07:30:34;100009.50;;;12.07;100.00
78016;BME280;67223;51.102;5.882;2024-01-15T07:32:59;100003.59;;;12.47;100.00
78016;BME280;67223;51.102;5.882;2024-01-15T07:35:25;100013.25;;;11.96;100.00
78016;BME280;67223;51.102;5.882;2024-01-15T07:37:50;100008.56;;;11.81;100.00
78016;BME280;67223;51.102;5.882;2024-01-15T07:40:16;99998.47;;;11.57;100.00
78016;BME280;67223;51.102;5.882;2024-01-15T07:42:41;100012.75;;;10.93;100.00
78016;BME280;67223;51.102;5.882;2024-01-15T07:45:08;100017.28;;;11.65;100.00
78016;BME280;67223;51.102;5.882;2024-01-15T07:47:34;100020.09;;;12.17;100.00
78016;BME280;67223;51.102;5.882;2024-01-15T07:49:59;100008.06;;;11.77;100.00
78016;BME280;67223;51.102;5.882;2024-01-15T07:52:25;100007.13;;;12.04;100.00
78016;BME280;67223;51.102;5.882;2024-01-15T07:54:50;99998.03;;;10.33;100.00
78016;BME280;67223;51.102;5.882;2024-01-15T07:57:15;99987.69;;;11.04;100.00
78016;BME280;67223;51.102;5.882;2024-01-15T07:59:41;99986.63;;;11.14;100.00
78016;BME280;67223;51.102;5.882;2024-01-15T08:02:06;99994.47;;;11.16;100.00
78016;BME280;67223;51.102;5.882;2024-01-15T08:04:32;100000.06;;;10.68;100.00
78016;BME280;67223;51.102;5.882;2024-01-15T08:06:58;100008.84;;;10.88;100.00
78016;BME280;67223;51.102;5.882;2024-01-15T08:09:24;100004.81;;;12.27;100.00
78016;BME280;67223;51.102;5.882;2024-01-15T08:11:49;100017.53;;;12.25;100.00
78016;BME280;67223;51.102;5.882;2024-01-15T08:14:15;100026.03;;;12.46;100.00
78016;BME280;67223;51.102;5.882;2024-01-15T08:16:40;100036.25;;;12.50;100.00
78016;BME280;67223;51.102;5.882;2024-01-15T08:19:06;100045.47;;;12.48;100.00
78016;BME280;67223;51.102;5.882;2024-01-15T08:21:32;100049.97;;;12.47;100.00
78016;BME280;67223;51.102;5.882;2024-01-15T08:24:01;100053.19;;;12.51;100.00
78016;BME280;67223;51.102;5.882;2024-01-15T08:26:28;100052.50;;;12.49;100.00
78016;BME280;67223;51.102;5.882;2024-01-15T08:28:53;100055.00;;;12.50;100.00
78016;BME280;67223;51.102;5.882;2024-01-15T08:31:19;100057.31;;;12.45;100.00
78016;BME280;67223;51.102;5.882;2024-01-15T08:33:44;100060.84;;;12.46;100.00
78016;BME280;67223;51.102;5.882;2024-01-15T08:36:10;100057.69;;;12.50;100.00
78016;BME280;67223;51.102;5.882;2024-01-15T08:38:36;100063.03;;;12.50;100.00
78016;BME280;67223;51.102;5.882;2024-01-15T08:41:01;100063.84;;;12.43;100.00
78016;BME280;67223;51.102;5.882;2024-01-15T08:43:27;100066.50;;;12.43;100.00
78016;BME280;67223;51.102;5.882;2024-01-15T08:45:52;100076.19;;;12.18;100.00
78016;BME280;67223;51.102;5.882;2024-01-15T08:48:18;100079.91;;;12.43;100.00
78016;BME280;67223;51.102;5.882;2024-01-15T08:50:44;100080.69;;;12.18;100.00
78016;BME280;67223;51.102;5.882;2024-01-15T08:53:12;100076.53;;;12.41;100.00
78016;BME280;67223;51.102;5.882;2024-01-15T08:55:38;100090.56;;;12.35;100.00
78016;BME280;67223;51.102;5.882;2024-01-15T08:58:04;100093.44;;;12.41;100.00
78016;BME280;67223;51.102;5.882;2024-01-15T09:00:29;100096.97;;;12.42;100.00
78016;BME280;67223;51.102;5.882;2024-01-15T09:02:56;100095.97;;;12.43;100.00
78016;BME280;67223;51.102;5.882;2024-01-15T09:05:22;100101.94;;;12.37;100.00
78016;BME280;67223;51.102;5.882;2024-01-15T09:07:47;100103.16;;;12.42;100.00
78016;BME280;67223;51.102;5.882;2024-01-15T09:10:13;100104.69;;;12.45;100.00
78016;BME280;67223;51.102;5.882;2024-01-15T09:12:39;100101.47;;;12.41;100.00
78016;BME280;67223;51.102;5.882;2024-01-15T09:15:04;100103.16;;;12.42;100.00
78016;BME280;67223;51.102;5.882;2024-01-15T09:17:31;100099.41;;;12.18;100.00
78016;BME280;67223;51.102;5.882;2024-01-15T09:19:57;100102.53;;;12.31;100.00
78016;BME280;67223;51.102;5.882;2024-01-15T09:22:22;100109.69;;;12.40;100.00
78016;BME280;67223;51.102;5.882;2024-01-15T09:24:48;100108.13;;;12.37;100.00
78016;BME280;67223;51.102;5.882;2024-01-15T09:27:13;100104.94;;;12.34;100.00
78016;BME280;67223;51.102;5.882;2024-01-15T09:29:39;100111.13;;;12.17;100.00
78016;BME280;67223;51.102;5.882;2024-01-15T09:32:11;100109.59;;;12.14;100.00
78016;BME280;67223;51.102;5.882;2024-01-15T09:34:37;100106.69;;;12.25;100.00
78016;BME280;67223;51.102;5.882;2024-01-15T09:37:02;100109.75;;;12.30;100.00
78016;BME280;67223;51.102;5.882;2024-01-15T09:39:29;100108.75;;;12.31;100.00
78016;BME280;67223;51.102;5.882;2024-01-15T09:41:56;100109.75;;;12.30;100.00
78016;BME280;67223;51.102;5.882;2024-01-15T09:44:23;100118.47;;;12.15;100.00
78016;BME280;67223;51.102;5.882;2024-01-15T09:46:49;100111.19;;;12.42;100.00
78016;BME280;67223;51.102;5.882;2024-01-15T09:49:18;100113.88;;;12.42;100.00
78016;BME280;67223;51.102;5.882;2024-01-15T09:51:44;100126.13;;;12.45;100.00
78016;BME280;67223;51.102;5.882;2024-01-15T09:54:09;100123.44;;;12.45;100.00
78016;BME280;67223;51.102;5.882;2024-01-15T09:56:35;100130.47;;;12.46;100.00
78016;BME280;67223;51.102;5.882;2024-01-15T09:59:01;100123.44;;;12.45;100.00
78016;BME280;67223;51.102;5.882;2024-01-15T10:01:30;100131.47;;;12.45;100.00
78016;BME280;67223;51.102;5.882;2024-01-15T10:03:56;100129.78;;;12.44;100.00
78016;BME280;67223;51.102;5.882;2024-01-15T10:06:22;100126.81;;;12.29;100.00
78016;BME280;67223;51.102;5.882;2024-01-15T10:08:51;100133.22;;;12.36;100.00
78016;BME280;67223;51.102;5.882;2024-01-15T10:11:17;100138.03;;;12.33;100.00
78016;BME280;67223;51.102;5.882;2024-01-15T10:13:48;100134.66;;;12.31;100.00
78016;BME280;67223;51.102;5.882;2024-01-15T10:16:19;100138.97;;;11.79;100.00
78016;BME280;67223;51.102;5.882;2024-01-15T10:18:45;100124.63;;;11.43;100.00
78016;BME280;67223;51.102;5.882;2024-01-15T10:21:10;100128.88;;;12.18;100.00
78016;BME280;67223;51.102;5.882;2024-01-15T10:23:35;100131.69;;;12.16;100.00
78016;BME280;67223;51.102;5.882;2024-01-15T10:26:01;100131.22;;;12.03;100.00
78016;BME280;67223;51.102;5.882;2024-01-15T10:28:27;100134.75;;;12.21;100.00
78016;BME280;67223;51.102;5.882;2024-01-15T10:30:56;100130.78;;;12.25;100.00
78016;BME280;67223;51.102;5.882;2024-01-15T10:33:22;100131.47;;;12.27;100.00
78016;BME280;67223;51.102;5.882;2024-01-15T10:35:55;100121.69;;;12.18;100.00
78016;BME280;67223;51.102;5.882;2024-01-15T10:38:22;100120.97;;;12.16;100.00
78016;BME280;67223;51.102;5.882;2024-01-15T10:40:51;100122.06;;;12.23;100.00
78016;BME280;67223;51.102;5.882;2024-01-15T10:43:17;100115.72;;;12.24;100.00
78016;BME280;67223;51.102;5.882;2024-01-15T10:45:45;100119.25;;;12.25;100.00
78016;BME280;67223;51.102;5.882;2024-01-15T10:48:10;100107.22;;;12.11;100.00
78016;BME280;67223;51.102;5.882;2024-01-15T10:50:36;100116.72;;;12.23;100.00
78016;BME280;67223;51.102;5.882;2024-01-15T10:53:03;100114.88;;;12.24;100.00
78016;BME280;67223;51.102;5.882;2024-01-15T10:55:29;100111.66;;;12.02;100.00
78016;BME280;67223;51.102;5.882;2024-01-15T10:57:57;100116.31;;;12.18;100.00
78016;BME280;67223;51.102;5.882;2024-01-15T11:00:22;100122.22;;;12.39;100.00
78016;BME280;67223;51.102;5.882;2024-01-15T11:02:51;100117.72;;;12.66;100.00
78016;BME280;67223;51.102;5.882;2024-01-15T11:05:21;100124.63;;;12.50;100.00
78016;BME280;67223;51.102;5.882;2024-01-15T11:07:48;100127.16;;;12.52;100.00
78016;BME280;67223;51.102;5.882;2024-01-15T11:10:37;100121.44;;;12.65;100.00
78016;BME280;67223;51.102;5.882;2024-01-15T11:13:03;100118.66;;;12.57;100.00
78016;BME280;67223;51.102;5.882;2024-01-15T11:15:30;100118.38;;;12.42;100.00
78016;BME280;67223;51.102;5.882;2024-01-15T11:18:00;100124.34;;;12.18;100.00
78016;BME280;67223;51.102;5.882;2024-01-15T11:20:27;100116.31;;;12.36;100.00
78016;BME280;67223;51.102;5.882;2024-01-15T11:22:52;100112.03;;;12.43;100.00
78016;BME280;67223;51.102;5.882;2024-01-15T11:25:19;100116.84;;;12.22;100.00
78016;BME280;67223;51.102;5.882;2024-01-15T11:27:47;100114.47;;;12.36;100.00
78016;BME280;67223;51.102;5.882;2024-01-15T11:30:13;100120.69;;;12.37;100.00
78016;BME280;67223;51.102;5.882;2024-01-15T11:32:40;100119.69;;;12.38;100.00
78016;BME280;67223;51.102;5.882;2024-01-15T11:35:09;100109.97;;;12.37;100.00
78016;BME280;67223;51.102;5.882;2024-01-15T11:40:20;100109.31;;;12.35;100.00
78016;BME280;67223;51.102;5.882;2024-01-15T11:42:47;100113.94;;;12.33;100.00
78016;BME280;67223;51.102;5.882;2024-01-15T11:45:14;100118.94;;;12.28;100.00
78016;BME280;67223;51.102;5.882;2024-01-15T11:50:14;100117.25;;;12.27;100.00
78016;BME280;67223;51.102;5.882;2024-01-15T11:52:43;100109.22;;;12.27;100.00
78016;BME280;67223;51.102;5.882;2024-01-15T11:55:27;100119.25;;;12.25;100.00
78016;BME280;67223;51.102;5.882;2024-01-15T11:57:54;100114.03;;;12.23;100.00
78016;BME280;67223;51.102;5.882;2024-01-15T12:00:23;100114.88;;;12.24;100.00
78016;BME280;67223;51.102;5.882;2024-01-15T12:02:52;100117.00;;;12.02;100.00
78016;BME280;67223;51.102;5.882;2024-01-15T12:05:20;100119.53;;;12.22;100.00
78016;BME280;67223;51.102;5.882;2024-01-15T12:07:46;100123.56;;;12.26;100.00
78016;BME280;67223;51.102;5.882;2024-01-15T12:10:20;100125.47;;;12.16;100.00
78016;BME280;67223;51.102;5.882;2024-01-15T12:15:21;100129.09;;;12.24;100.00
78016;BME280;67223;51.102;5.882;2024-01-15T12:17:46;100126.25;;;12.26;100.00
78016;BME280;67223;51.102;5.882;2024-01-15T12:20:13;100133.91;;;12.21;100.00
78016;BME280;67223;51.102;5.882;2024-01-15T12:22:38;100129.72;;;11.73;100.00
78016;BME280;67223;51.102;5.882;2024-01-15T12:25:04;100119.31;;;12.15;100.00
78016;BME280;67223;51.102;5.882;2024-01-15T12:27:30;100135.91;;;12.19;100.00
78016;BME280;67223;51.102;5.882;2024-01-15T12:29:55;100128.63;;;12.11;100.00
78016;BME280;67223;51.102;5.882;2024-01-15T12:32:23;100133.38;;;11.99;100.00
78016;BME280;67223;51.102;5.882;2024-01-15T12:34:49;100137.41;;;12.21;100.00
78016;BME280;67223;51.102;5.882;2024-01-15T12:37:18;100144.84;;;12.27;100.00
78016;BME280;67223;51.102;5.882;2024-01-15T12:39:45;100145.84;;;12.26;100.00
78016;BME280;67223;51.102;5.882;2024-01-15T12:42:10;100138.25;;;12.22;100.00
78016;BME280;67223;51.102;5.882;2024-01-15T12:44:36;100150.53;;;11.79;100.00
78016;BME280;67223;51.102;5.882;2024-01-15T12:47:04;100150.88;;;12.12;100.00
78016;BME280;67223;51.102;5.882;2024-01-15T12:49:29;100142.69;;;12.13;100.00
78016;BME280;67223;51.102;5.882;2024-01-15T12:51:59;100154.25;;;12.14;100.00
78016;BME280;67223;51.102;5.882;2024-01-15T12:54:25;100161.44;;;11.95;100.00